createdAt,value
2022-09-22T00:02:14.147Z,99084.00
2022-09-22T00:07:15.923Z,99080.16
2022-09-22T00:12:17.705Z,99072.56
2022-09-22T00:17:19.456Z,99068.84
2022-09-22T00:22:21.210Z,99058.97
2022-09-22T00:27:24.291Z,99064.50
2022-09-22T00:32:26.139Z,99059.06
2022-09-22T00:37:28.241Z,99057.50
2022-09-22T00:42:30.016Z,99056.59
2022-09-22T00:47:39.724Z,99043.25
2022-09-22T00:52:52.472Z,99048.44
2022-09-22T00:57:55.801Z,99039.88
2022-09-22T01:03:00.837Z,99044.50
2022-09-22T01:08:03.380Z,99037.38
2022-09-22T01:13:42.766Z,99035.78
2022-09-22T01:18:56.958Z,99034.44
2022-09-22T01:24:40.116Z,99028.28
2022-09-22T01:29:56.331Z,99026.47
2022-09-22T01:35:03.879Z,99035.09
2022-09-22T01:40:12.904Z,99033.91
2022-09-22T01:45:20.576Z,99029.03
2022-09-22T01:50:27.445Z,99022.91
2022-09-22T01:55:34.967Z,99028.22
2022-09-22T02:00:40.509Z,99032.66
2022-09-22T02:05:56.523Z,99033.13
2022-09-22T02:11:04.346Z,99023.38
2022-09-22T02:16:07.825Z,99021.94
2022-09-22T02:21:10.994Z,99028.34
2022-09-22T02:26:18.426Z,99021.56
2022-09-22T02:31:23.670Z,99024.53
2022-09-22T02:36:32.851Z,99019.31
2022-09-22T02:42:05.687Z,99019.31
2022-09-22T02:47:15.412Z,99014.78
2022-09-22T02:52:19.834Z,99027.00
2022-09-22T02:57:22.021Z,99017.06
2022-09-22T03:02:23.914Z,99015.47
2022-09-22T03:07:25.790Z,99012.41
2022-09-22T03:12:27.640Z,99011.63
2022-09-22T03:17:32.191Z,99011.63
2022-09-22T03:22:34.198Z,99004.50
2022-09-22T03:27:36.543Z,98994.63
2022-09-22T03:32:38.888Z,98999.16
2022-09-22T03:37:40.888Z,99000.75
2022-09-22T03:42:42.749Z,99000.38
2022-09-22T03:47:44.719Z,98993.69
2022-09-22T03:52:46.642Z,99000.38
2022-09-22T03:57:48.609Z,99003.53
2022-09-22T04:02:50.471Z,99001.25
2022-09-22T04:07:53.096Z,98992.91
2022-09-22T04:12:54.943Z,98997.63
2022-09-22T04:17:57.547Z,98992.19
2022-09-22T04:22:59.526Z,98996.97
2022-09-22T04:28:05.401Z,98998.81
2022-09-22T04:33:07.563Z,98995.88
2022-09-22T04:38:10.696Z,98994.56
2022-09-22T04:43:12.806Z,98983.44
2022-09-22T04:48:17.504Z,98990.09
2022-09-22T04:53:19.645Z,98999.59
2022-09-22T04:58:21.417Z,98998.13
2022-09-22T05:03:23.248Z,99007.56
2022-09-22T05:08:25.300Z,99002.28
2022-09-22T05:13:27.130Z,99002.16
2022-09-22T05:18:28.940Z,99012.72
2022-09-22T05:23:32.184Z,99016.41
2022-09-22T05:28:34.061Z,99029.53
2022-09-22T05:33:35.931Z,99034.06
2022-09-22T05:38:37.728Z,99038.59
2022-09-22T05:43:39.571Z,99041.09
2022-09-22T05:48:41.387Z,99039.09
2022-09-22T05:53:43.272Z,99039.59
2022-09-22T05:58:47.301Z,99036.03
2022-09-22T06:03:49.097Z,99036.72
2022-09-22T06:08:51.152Z,99043.19
2022-09-22T06:13:53.247Z,99037.38
2022-09-22T06:18:55.083Z,99032.38
2022-09-22T06:23:57.828Z,99030.78
2022-09-22T06:28:59.732Z,99034.09
2022-09-22T06:34:04.324Z,99034.50
2022-09-22T06:39:10.641Z,99029.13
2022-09-22T06:44:12.780Z,99031.38
2022-09-22T06:49:14.697Z,99027.53
2022-09-22T06:54:16.674Z,99032.81
2022-09-22T06:59:18.564Z,99031.03
2022-09-22T07:04:22.491Z,99037.13
2022-09-22T07:09:24.465Z,99041.06
2022-09-22T07:14:26.717Z,99046.34
2022-09-22T07:19:28.528Z,99036.28
2022-09-22T07:24:30.312Z,99039.84
2022-09-22T07:29:32.292Z,99047.91
2022-09-22T07:34:34.125Z,99039.81
2022-09-22T07:39:35.981Z,99038.66
2022-09-22T07:44:56.486Z,99042.50
2022-09-22T07:49:58.285Z,99046.09
2022-09-22T07:55:00.110Z,99050.16
2022-09-22T08:00:02.349Z,99038.56
2022-09-22T08:05:15.456Z,99037.56
2022-09-22T08:10:18.644Z,99035.69
2022-09-22T08:15:26.964Z,99042.31
2022-09-22T08:20:30.102Z,99047.03
2022-09-22T08:25:31.939Z,99040.75
2022-09-22T08:30:35.330Z,99046.19
2022-09-22T08:35:37.511Z,99051.56
2022-09-22T08:40:43.422Z,99044.84
2022-09-22T08:45:46.316Z,99051.97
2022-09-22T08:51:23.841Z,99043.19
2022-09-22T08:56:33.525Z,99036.63
2022-09-22T09:02:02.462Z,99039.41
2022-09-22T09:07:29.301Z,99046.34
2022-09-22T09:12:49.811Z,99042.28
2022-09-22T09:17:56.709Z,99050.78
2022-09-22T09:23:00.077Z,99042.97
2022-09-22T09:28:07.202Z,99054.75
2022-09-22T09:33:24.070Z,99051.72
2022-09-22T09:38:35.534Z,99044.72
2022-09-22T09:43:42.847Z,99047.09
2022-09-22T09:49:19.301Z,99040.06
2022-09-22T09:54:21.735Z,99046.44
2022-09-22T09:59:46.401Z,99044.16
2022-09-22T10:05:17.299Z,99031.81
2022-09-22T10:10:39.153Z,99029.53
2022-09-22T10:15:43.511Z,99020.16
2022-09-22T10:20:45.404Z,99025.66
2022-09-22T10:25:48.415Z,99019.81
2022-09-22T10:31:03.698Z,99010.06
2022-09-22T10:36:12.170Z,99015.53
2022-09-22T10:41:24.261Z,99010.44
2022-09-22T10:46:38.751Z,99010.03
2022-09-22T10:52:00.931Z,99014.75
2022-09-22T10:57:10.301Z,99012.38
2022-09-22T11:02:50.450Z,98998.56
2022-09-22T11:08:25.749Z,98994.59
2022-09-22T11:13:57.584Z,98990.25
2022-09-22T11:19:27.284Z,98993.78
2022-09-22T11:24:51.284Z,98994.25
2022-09-22T11:30:11.314Z,98996.69
2022-09-22T11:35:16.730Z,98995.91
2022-09-22T11:40:39.942Z,98995.50
2022-09-22T11:45:41.915Z,98997.47
2022-09-22T11:51:26.709Z,98985.25
2022-09-22T11:56:49.413Z,98975.47
2022-09-22T12:01:53.645Z,98971.50
2022-09-22T12:06:58.116Z,98962.06
2022-09-22T12:12:03.195Z,98964.06
2022-09-22T12:17:19.987Z,98959.34
2022-09-22T12:22:53.917Z,98962.84
2022-09-22T12:27:58.701Z,98954.22
2022-09-22T12:33:00.757Z,98956.63
2022-09-22T12:38:02.995Z,98953.50
2022-09-22T12:43:06.114Z,98947.59
2022-09-22T12:48:23.192Z,98940.13
2022-09-22T12:53:29.214Z,98940.53
2022-09-22T12:58:31.052Z,98936.22
2022-09-22T13:03:32.802Z,98944.03
2022-09-22T13:08:35.202Z,98940.13
2022-09-22T13:13:39.945Z,98931.91
2022-09-22T13:18:57.211Z,98938.56
2022-09-22T13:24:01.675Z,98928.34
2022-09-22T13:29:20.725Z,98932.28
2022-09-22T13:34:31.228Z,98926.75
2022-09-22T13:39:35.308Z,98928.31
2022-09-22T13:44:40.190Z,98918.13
2022-09-22T13:49:55.052Z,98923.66
2022-09-22T13:55:09.210Z,98911.84
2022-09-22T14:01:08.634Z,98911.03
2022-09-22T14:06:09.588Z,98905.09
2022-09-22T14:11:20.938Z,98904.28
2022-09-22T14:16:30.622Z,98897.97
2022-09-22T14:21:40.727Z,98900.78
2022-09-22T14:26:58.983Z,98896.09
2022-09-22T14:32:38.816Z,98898.06
2022-09-22T14:37:45.521Z,98892.59
2022-09-22T14:43:10.171Z,98891.38
2022-09-22T14:48:11.980Z,98892.19
2022-09-22T14:53:33.958Z,98881.19
2022-09-22T14:58:43.632Z,98883.59
2022-09-22T15:03:54.882Z,98884.75
2022-09-22T15:08:56.531Z,98884.00
2022-09-22T15:13:58.348Z,98885.16
2022-09-22T15:19:00.475Z,98884.00
2022-09-22T15:24:04.711Z,98872.59
2022-09-22T15:29:06.547Z,98877.69
2022-09-22T15:34:10.029Z,98877.28
2022-09-22T15:39:21.634Z,98879.25
2022-09-22T15:44:24.007Z,98885.13
2022-09-22T15:49:27.613Z,98870.16
2022-09-22T15:54:29.676Z,98879.56
2022-09-22T15:59:33.542Z,98880.31
2022-09-22T16:04:35.348Z,98878.69
2022-09-22T16:09:37.203Z,98881.78
2022-09-22T16:14:42.558Z,98869.97
2022-09-22T16:19:44.367Z,98861.34
2022-09-22T16:24:46.280Z,98865.25
2022-09-22T16:29:48.748Z,98862.88
2022-09-22T16:34:50.647Z,98862.06
2022-09-22T16:39:52.476Z,98865.88
2022-09-22T16:44:54.275Z,98869.28
2022-09-22T16:49:56.090Z,98864.03
2022-09-22T16:54:59.838Z,98861.59
2022-09-22T17:00:02.163Z,98855.25
2022-09-22T17:05:04.203Z,98862.09
2022-09-22T17:10:07.058Z,98867.34
2022-09-22T17:15:12.195Z,98867.53
2022-09-22T17:20:14.141Z,98859.94
2022-09-22T17:25:16.091Z,98866.00
2022-09-22T17:30:17.949Z,98873.13
2022-09-22T17:35:19.776Z,98876.47
2022-09-22T17:40:21.706Z,98877.03
2022-09-22T17:45:23.524Z,98882.56
2022-09-22T17:50:43.582Z,98881.09
2022-09-22T17:55:45.349Z,98872.47
2022-09-22T18:00:47.716Z,98868.06
2022-09-22T18:05:53.716Z,98873.69
2022-09-22T18:10:55.899Z,98882.72
2022-09-22T18:16:20.127Z,98883.41
2022-09-22T18:21:22.160Z,98887.44
2022-09-22T18:26:24.804Z,98885.75
2022-09-22T18:31:27.300Z,98883.00
2022-09-22T18:36:29.490Z,98889.97
2022-09-22T18:41:32.716Z,98883.56
2022-09-22T18:46:35.129Z,98890.88
2022-09-22T18:51:39.568Z,98885.53
2022-09-22T18:56:44.524Z,98890.50
2022-09-22T19:01:49.649Z,98879.38
2022-09-22T19:07:14.302Z,98886.28
2022-09-22T19:12:16.262Z,98894.03
2022-09-22T19:17:20.135Z,98889.31
2022-09-22T19:22:23.639Z,98888.59
2022-09-22T19:27:26.031Z,98881.66
2022-09-22T19:32:28.364Z,98876.16
2022-09-22T19:37:30.702Z,98880.44
2022-09-22T19:42:35.876Z,98877.06
2022-09-22T19:47:40.115Z,98876.69
2022-09-22T19:52:42.295Z,98875.63
2022-09-22T19:57:44.373Z,98875.88
2022-09-22T20:02:46.406Z,98878.44
2022-09-22T20:07:49.676Z,98880.06
2022-09-22T20:12:54.238Z,98880.06
2022-09-22T20:17:56.021Z,98873.47
2022-09-22T20:23:02.538Z,98880.81
2022-09-22T20:28:05.261Z,98875.00
2022-09-22T20:33:17.568Z,98873.59
2022-09-22T20:38:19.717Z,98884.06
2022-09-22T20:43:21.530Z,98872.81
2022-09-22T20:48:24.724Z,98869.84
2022-09-22T20:53:27.336Z,98871.72
2022-09-22T20:58:32.733Z,98865.25
2022-09-22T21:03:35.414Z,98865.00
2022-09-22T21:08:57.943Z,98858.63
2022-09-22T21:14:05.707Z,98856.41
2022-09-22T21:19:08.303Z,98865.13
2022-09-22T21:24:11.127Z,98854.72
2022-09-22T21:29:12.925Z,98855.03
2022-09-22T21:34:14.821Z,98853.91
2022-09-22T21:39:16.690Z,98855.84
2022-09-22T21:44:18.506Z,98853.91
2022-09-22T21:49:20.645Z,98855.50
2022-09-22T21:54:23.234Z,98848.72
2022-09-22T21:59:25.117Z,98854.38
2022-09-22T22:04:27.011Z,98847.28
2022-09-22T22:09:28.908Z,98848.41
2022-09-22T22:14:33.545Z,98841.72
2022-09-22T22:19:35.341Z,98833.09
2022-09-22T22:24:40.914Z,98839.56
2022-09-22T22:29:42.931Z,98836.19
2022-09-22T22:34:44.715Z,98831.53
2022-09-22T22:39:46.584Z,98834.25
2022-09-22T22:44:48.431Z,98825.44
2022-09-22T22:49:51.521Z,98834.94
2022-09-22T22:54:53.736Z,98832.38
2022-09-22T22:59:57.177Z,98822.31
2022-09-22T23:05:01.169Z,98818.66
2022-09-22T23:10:08.871Z,98818.66
2022-09-22T23:15:11.047Z,98816.63
2022-09-22T23:20:12.846Z,98821.16
2022-09-22T23:25:14.836Z,98809.38
2022-09-22T23:30:17.091Z,98795.03
2022-09-22T23:35:18.977Z,98798.78
2022-09-22T23:40:21.865Z,98805.97
2022-09-22T23:45:23.662Z,98803.25
2022-09-22T23:50:25.964Z,98790.59
2022-09-22T23:55:28.123Z,98789.78
